createdAt,value
2022-08-19T00:00:44.004Z,98305.48
2022-08-19T00:03:12.907Z,98296.35
2022-08-19T00:05:42.980Z,98295.34
2022-08-19T00:08:10.854Z,98297.00
2022-08-19T00:10:38.706Z,98294.79
2022-08-19T00:13:06.567Z,98288.89
2022-08-19T00:15:34.917Z,98290.97
2022-08-19T00:18:02.953Z,98282.41
2022-08-19T00:20:32.635Z,98279.00
2022-08-19T00:23:01.501Z,98287.70
2022-08-19T00:25:30.142Z,98296.92
2022-08-19T00:28:00.428Z,98309.83
2022-08-19T00:30:29.088Z,98315.70
2022-08-19T00:32:58.467Z,98292.30
2022-08-19T00:35:28.506Z,98265.93
2022-08-19T00:37:57.244Z,98269.50
2022-08-19T00:40:27.770Z,98252.10
2022-08-19T00:42:55.575Z,98261.11
2022-08-19T00:45:27.766Z,98259.58
2022-08-19T00:47:55.677Z,98255.08
2022-08-19T00:50:26.448Z,98269.24
2022-08-19T00:52:56.499Z,98269.47
2022-08-19T00:55:29.947Z,98271.48
2022-08-19T00:58:09.726Z,98262.30
2022-08-19T01:00:39.373Z,98261.19
2022-08-19T01:03:13.811Z,98256.90
2022-08-19T01:05:44.666Z,98260.61
2022-08-19T01:08:13.489Z,98253.55
2022-08-19T01:10:49.643Z,98257.40
2022-08-19T01:13:22.259Z,98252.61
2022-08-19T01:16:00.384Z,98255.14
2022-08-19T01:18:29.835Z,98251.30
2022-08-19T01:21:10.963Z,98245.56
2022-08-19T01:23:44.611Z,98240.91
2022-08-19T01:26:25.118Z,98237.46
2022-08-19T01:28:58.334Z,98236.02
2022-08-19T01:31:33.772Z,98243.70
2022-08-19T01:34:03.153Z,98241.41
2022-08-19T01:36:34.795Z,98241.95
2022-08-19T01:39:07.519Z,98240.96
2022-08-19T01:41:36.208Z,98241.23
2022-08-19T01:44:17.722Z,98241.13
2022-08-19T01:46:49.408Z,98242.89
2022-08-19T01:49:20.815Z,98247.33
2022-08-19T01:51:50.870Z,98254.20
2022-08-19T01:54:27.324Z,98247.64
2022-08-19T01:57:10.150Z,98245.64
2022-08-19T01:59:40.420Z,98244.32
2022-08-19T02:02:09.940Z,98243.33
2022-08-19T02:04:39.249Z,98245.82
2022-08-19T02:07:09.249Z,98242.52
2022-08-19T02:09:37.321Z,98240.02
2022-08-19T02:12:06.385Z,98232.13
2022-08-19T02:14:38.119Z,98214.83
2022-08-19T02:17:06.419Z,98215.05
2022-08-19T02:19:34.310Z,98221.88
2022-08-19T02:22:02.158Z,98225.66
2022-08-19T02:24:30.027Z,98220.88
2022-08-19T02:26:58.447Z,98216.65
2022-08-19T02:29:26.403Z,98213.85
2022-08-19T02:31:54.206Z,98220.83
2022-08-19T02:34:22.025Z,98214.81
2022-08-19T02:36:51.809Z,98216.55
2022-08-19T02:39:20.590Z,98220.67
2022-08-19T02:41:50.692Z,98223.44
2022-08-19T02:44:31.119Z,98225.11
2022-08-19T02:46:59.786Z,98224.33
2022-08-19T02:49:29.418Z,98224.45
2022-08-19T02:52:03.645Z,98224.81
2022-08-19T02:54:31.485Z,98227.26
2022-08-19T02:57:00.149Z,98230.30
2022-08-19T02:59:32.196Z,98234.75
2022-08-19T03:02:00.026Z,98236.80
2022-08-19T03:04:29.734Z,98238.37
2022-08-19T03:07:02.498Z,98242.33
2022-08-19T03:09:38.990Z,98240.98
2022-08-19T03:12:07.414Z,98233.51
2022-08-19T03:14:36.542Z,98235.44
2022-08-19T03:17:05.762Z,98240.65
2022-08-19T03:19:33.611Z,98240.60
2022-08-19T03:22:01.715Z,98239.20
2022-08-19T03:24:29.563Z,98236.27
2022-08-19T03:26:58.729Z,98242.42
2022-08-19T03:29:30.776Z,98244.80
2022-08-19T03:32:02.061Z,98249.63
2022-08-19T03:34:35.656Z,98242.05
2022-08-19T03:37:11.570Z,98237.55
2022-08-19T03:39:40.342Z,98246.13
2022-08-19T03:42:38.125Z,98249.52
2022-08-19T03:44:56.512Z,98253.58
2022-08-19T03:47:24.320Z,98251.06
2022-08-19T03:49:52.531Z,98256.94
2022-08-19T03:52:21.186Z,98262.13
2022-08-19T03:54:49.239Z,98271.05
2022-08-19T03:57:18.206Z,98262.80
2022-08-19T03:59:46.073Z,98259.41
2022-08-19T04:02:14.301Z,98255.52
2022-08-19T04:04:44.580Z,98250.13
2022-08-19T04:07:22.525Z,98251.50
2022-08-19T04:09:53.192Z,98258.98
2022-08-19T04:12:21.535Z,98257.80
2022-08-19T04:14:49.321Z,98250.29
2022-08-19T04:17:17.182Z,98246.73
2022-08-19T04:19:45.618Z,98242.68
2022-08-19T04:22:14.332Z,98239.36
2022-08-19T04:24:42.322Z,98236.09
2022-08-19T04:27:10.100Z,98240.11
2022-08-19T04:29:40.635Z,98238.60
2022-08-19T04:32:10.156Z,98240.85
2022-08-19T04:35:01.287Z,98240.23
2022-08-19T04:37:34.654Z,98237.52
2022-08-19T04:40:24.916Z,98238.02
2022-08-19T04:42:53.056Z,98237.16
2022-08-19T04:45:22.877Z,98235.17
2022-08-19T04:47:58.717Z,98234.57
2022-08-19T04:50:30.344Z,98230.23
2022-08-19T04:52:58.108Z,98223.70
2022-08-19T04:55:28.841Z,98227.01
2022-08-19T04:57:57.188Z,98233.26
2022-08-19T05:00:26.322Z,98239.61
2022-08-19T05:02:54.340Z,98241.87
2022-08-19T05:05:22.780Z,98240.67
2022-08-19T05:07:50.683Z,98235.77
2022-08-19T05:10:18.602Z,98232.92
2022-08-19T05:12:47.658Z,98227.09
2022-08-19T05:15:15.569Z,98227.71
2022-08-19T05:18:03.391Z,98235.86
2022-08-19T05:20:49.968Z,98240.22
2022-08-19T05:23:22.183Z,98249.48
2022-08-19T05:25:52.794Z,98256.02
2022-08-19T05:28:22.581Z,98264.18
2022-08-19T05:30:51.974Z,98271.00
2022-08-19T05:33:20.201Z,98278.40
2022-08-19T05:35:49.483Z,98282.42
2022-08-19T05:38:18.998Z,98297.98
2022-08-19T05:40:49.190Z,98309.01
2022-08-19T05:43:17.724Z,98303.40
2022-08-19T05:45:45.779Z,98298.78
2022-08-19T05:48:15.354Z,98298.79
2022-08-19T05:50:45.579Z,98296.27
2022-08-19T05:53:17.380Z,98288.35
2022-08-19T05:55:45.620Z,98293.30
2022-08-19T05:58:14.430Z,98304.07
2022-08-19T06:00:45.558Z,98318.27
2022-08-19T06:03:13.541Z,98329.34
2022-08-19T06:05:51.516Z,98336.14
2022-08-19T06:08:33.709Z,98333.43
2022-08-19T06:11:15.145Z,98336.66
2022-08-19T06:13:44.461Z,98337.55
2022-08-19T06:16:12.277Z,98344.19
2022-08-19T06:18:40.154Z,98342.37
2022-08-19T06:21:08.369Z,98329.82
2022-08-19T06:23:36.618Z,98335.60
2022-08-19T06:26:05.400Z,98338.97
2022-08-19T06:28:34.594Z,98349.56
2022-08-19T06:31:07.480Z,98352.05
2022-08-19T06:33:35.600Z,98351.77
2022-08-19T06:36:03.643Z,98362.80
2022-08-19T06:38:34.469Z,98369.91
2022-08-19T06:41:07.578Z,98372.68
2022-08-19T06:43:39.063Z,98377.77
2022-08-19T06:46:15.768Z,98378.92
2022-08-19T06:48:44.970Z,98378.21
2022-08-19T06:51:19.181Z,98380.07
2022-08-19T06:56:32.137Z,98394.91
2022-08-19T06:59:10.653Z,98393.87
2022-08-19T07:07:20.067Z,98398.75
2022-08-19T07:09:57.967Z,98399.69
2022-08-19T07:12:36.143Z,98403.45
2022-08-19T07:15:06.152Z,98413.17
2022-08-19T07:17:34.677Z,98412.10
2022-08-19T07:20:05.342Z,98410.67
2022-08-19T07:22:37.977Z,98415.55
2022-08-19T07:25:08.818Z,98416.69
2022-08-19T07:27:35.583Z,98424.16
2022-08-19T07:30:03.618Z,98417.52
2022-08-19T07:32:33.182Z,98409.54
2022-08-19T07:35:01.111Z,98411.54
2022-08-19T07:37:32.794Z,98411.92
2022-08-19T07:40:01.904Z,98414.77
2022-08-19T07:54:53.504Z,98422.69
2022-08-19T07:57:21.946Z,98432.02
2022-08-19T07:59:50.300Z,98437.89
2022-08-19T08:02:18.214Z,98438.31
2022-08-19T08:05:05.075Z,98437.73
2022-08-19T08:07:52.190Z,98439.70
2022-08-19T08:10:21.488Z,98442.23
2022-08-19T08:13:09.634Z,98436.27
2022-08-19T08:15:43.342Z,98435.98
2022-08-19T08:18:13.468Z,98433.58
2022-08-19T08:20:42.408Z,98426.17
2022-08-19T08:23:30.298Z,98422.15
2022-08-19T08:25:59.404Z,98413.88
2022-08-19T08:28:29.521Z,98414.23
2022-08-19T08:30:59.094Z,98408.42
2022-08-19T08:33:33.751Z,98407.79
2022-08-19T08:36:06.301Z,98404.14
2022-08-19T08:38:39.705Z,98402.32
2022-08-19T08:41:28.918Z,98399.89
2022-08-19T08:43:58.450Z,98387.38
2022-08-19T08:46:46.486Z,98382.90
2022-08-19T08:49:40.563Z,98378.45
2022-08-19T08:52:17.483Z,98394.02
2022-08-19T08:54:55.492Z,98396.23
2022-08-19T08:57:55.961Z,98392.13
2022-08-19T09:00:33.794Z,98391.66
2022-08-19T09:03:04.174Z,98391.73
2022-08-19T09:05:48.405Z,98387.79
2022-08-19T09:08:41.837Z,98392.88
2022-08-19T09:11:42.667Z,98400.80
2022-08-19T09:14:49.744Z,98409.89
2022-08-19T09:17:32.256Z,98409.99
2022-08-19T09:20:06.315Z,98410.41
2022-08-19T09:22:45.075Z,98407.02
2022-08-19T09:25:26.827Z,98412.65
2022-08-19T09:28:02.283Z,98418.48
2022-08-19T09:30:41.154Z,98419.41
2022-08-19T09:33:09.568Z,98419.29
2022-08-19T09:35:49.933Z,98425.73
2022-08-19T09:38:22.652Z,98423.96
2022-08-19T09:40:51.991Z,98429.94
2022-08-19T09:43:33.068Z,98437.27
2022-08-19T09:46:02.571Z,98437.52
2022-08-19T09:48:31.037Z,98438.84
2022-08-19T09:51:12.078Z,98434.88
2022-08-19T09:53:40.432Z,98438.02
2022-08-19T09:56:09.393Z,98437.90
2022-08-19T09:58:38.738Z,98438.59
2022-08-19T10:01:08.453Z,98437.98
2022-08-19T10:03:37.833Z,98439.29
2022-08-19T10:06:15.131Z,98434.65
2022-08-19T10:08:50.324Z,98436.84
2022-08-19T10:11:28.196Z,98433.73
2022-08-19T10:14:06.927Z,98435.77
2022-08-19T10:16:39.794Z,98434.60
2022-08-19T10:19:08.095Z,98439.66
2022-08-19T10:21:37.021Z,98438.35
2022-08-19T10:24:06.868Z,98441.09
2022-08-19T10:26:43.318Z,98440.42
2022-08-19T10:29:13.097Z,98438.92
2022-08-19T10:32:09.566Z,98442.47
2022-08-19T10:34:48.775Z,98451.95
2022-08-19T10:37:28.874Z,98456.23
2022-08-19T10:39:59.698Z,98463.15
2022-08-19T10:42:28.117Z,98465.50
2022-08-19T10:44:56.523Z,98475.26
2022-08-19T10:47:26.335Z,98476.50
2022-08-19T10:50:18.784Z,98479.34
2022-08-19T10:52:49.649Z,98469.14
2022-08-19T10:55:41.693Z,98470.45
2022-08-19T10:58:18.757Z,98474.02
2022-08-19T11:00:54.215Z,98476.91
2022-08-19T11:03:22.628Z,98479.52
2022-08-19T11:06:07.611Z,98477.36
2022-08-19T11:08:38.714Z,98475.93
2022-08-19T11:11:08.089Z,98481.35
2022-08-19T11:13:41.382Z,98481.20
2022-08-19T11:16:19.200Z,98480.19
2022-08-19T11:18:50.218Z,98475.66
2022-08-19T11:21:45.501Z,98474.56
2022-08-19T11:24:21.774Z,98471.52
2022-08-19T11:26:51.960Z,98470.08
2022-08-19T11:29:22.024Z,98469.48
2022-08-19T11:31:52.051Z,98473.65
2022-08-19T11:34:23.895Z,98473.16
2022-08-19T11:36:52.466Z,98467.73
2022-08-19T11:39:22.938Z,98467.67
2022-08-19T11:41:50.792Z,98470.42
2022-08-19T11:44:19.271Z,98460.98
2022-08-19T11:46:47.950Z,98461.52
2022-08-19T11:49:19.916Z,98457.48
2022-08-19T11:51:48.109Z,98458.88
2022-08-19T11:54:17.363Z,98459.84
2022-08-19T11:56:47.347Z,98458.20
2022-08-19T11:59:15.260Z,98459.30
2022-08-19T12:01:43.785Z,98456.93
2022-08-19T12:04:12.259Z,98457.92
2022-08-19T12:06:42.363Z,98453.20
2022-08-19T12:09:11.865Z,98456.48
2022-08-19T12:11:40.440Z,98458.42
2022-08-19T12:14:14.812Z,98442.70
2022-08-19T12:16:51.054Z,98442.52
2022-08-19T12:19:22.187Z,98447.21
2022-08-19T12:21:51.509Z,98444.67
2022-08-19T12:24:24.480Z,98451.69
2022-08-19T12:26:53.881Z,98451.13
2022-08-19T12:29:29.102Z,98452.96
2022-08-19T12:32:03.847Z,98453.07
2022-08-19T12:34:34.654Z,98450.42
2022-08-19T12:37:07.270Z,98448.33
2022-08-19T12:39:36.095Z,98448.27
2022-08-19T12:42:04.321Z,98450.23
2022-08-19T12:44:33.786Z,98449.02
2022-08-19T12:47:04.057Z,98450.38
2022-08-19T12:49:54.234Z,98449.11
2022-08-19T12:52:28.354Z,98445.80
2022-08-19T12:54:58.428Z,98448.72
2022-08-19T12:57:32.530Z,98448.17
2022-08-19T13:00:13.582Z,98446.08
2022-08-19T13:02:45.678Z,98440.42
2022-08-19T13:05:17.729Z,98438.71
2022-08-19T13:07:45.543Z,98439.62
2022-08-19T13:10:16.944Z,98439.05
2022-08-19T13:13:09.688Z,98435.86
2022-08-19T13:15:45.755Z,98440.77
2022-08-19T13:18:15.818Z,98440.36
2022-08-19T13:20:52.577Z,98436.58
2022-08-19T13:23:21.036Z,98434.71
2022-08-19T13:25:58.541Z,98441.19
2022-08-19T13:28:28.990Z,98440.13
2022-08-19T13:31:15.975Z,98434.23
2022-08-19T13:33:43.805Z,98439.98
2022-08-19T13:36:11.712Z,98440.89
2022-08-19T13:38:40.387Z,98438.75
2022-08-19T13:41:13.232Z,98437.79
2022-08-19T13:43:43.256Z,98439.81
2022-08-19T13:46:15.605Z,98440.84
2022-08-19T13:48:44.513Z,98445.98
2022-08-19T13:51:12.387Z,98449.52
2022-08-19T13:53:47.407Z,98458.27
2022-08-19T13:56:22.986Z,98467.09
2022-08-19T13:58:54.618Z,98464.05
2022-08-19T14:01:25.672Z,98466.54
2022-08-19T14:03:54.368Z,98467.89
2022-08-19T14:06:23.453Z,98470.69
2022-08-19T14:08:51.418Z,98476.73
2022-08-19T14:11:20.827Z,98483.05
2022-08-19T14:13:51.444Z,98486.73
2022-08-19T14:16:19.456Z,98487.49
2022-08-19T14:18:47.291Z,98487.20
2022-08-19T14:21:18.451Z,98478.88
2022-08-19T14:23:46.755Z,98477.36
2022-08-19T14:26:19.212Z,98474.47
2022-08-19T14:28:47.238Z,98471.83
2022-08-19T14:31:20.266Z,98461.73
2022-08-19T14:33:48.799Z,98462.55
2022-08-19T14:36:21.419Z,98466.81
2022-08-19T14:38:52.358Z,98467.86
2022-08-19T14:41:23.203Z,98469.98
2022-08-19T14:43:53.563Z,98472.92
2022-08-19T14:46:26.341Z,98476.38
2022-08-19T14:48:57.045Z,98475.18
2022-08-19T14:51:28.078Z,98466.14
2022-08-19T14:53:57.527Z,98464.89
2022-08-19T14:56:28.211Z,98467.79
2022-08-19T14:58:56.395Z,98470.42
2022-08-19T15:01:24.332Z,98474.96
2022-08-19T15:03:55.883Z,98465.03
2022-08-19T15:06:25.510Z,98470.28
2022-08-19T15:08:55.330Z,98469.91
2022-08-19T15:11:27.627Z,98472.52
2022-08-19T15:14:00.016Z,98469.67
2022-08-19T15:16:29.023Z,98477.48
2022-08-19T15:18:58.732Z,98476.17
2022-08-19T15:21:28.244Z,98477.80
2022-08-19T15:23:58.723Z,98471.23
2022-08-19T15:26:29.169Z,98466.88
2022-08-19T15:28:59.092Z,98459.95
2022-08-19T15:31:29.299Z,98453.30
2022-08-19T15:33:59.133Z,98458.17
2022-08-19T15:36:28.501Z,98451.70
2022-08-19T15:38:57.503Z,98460.18
2022-08-19T15:41:30.701Z,98458.61
2022-08-19T15:43:59.921Z,98459.86
2022-08-19T15:46:31.999Z,98456.23
2022-08-19T15:49:00.946Z,98455.96
2022-08-19T15:51:32.093Z,98456.28
2022-08-19T15:54:06.199Z,98451.77
2022-08-19T15:57:06.836Z,98449.63
2022-08-19T15:59:55.557Z,98453.80
2022-08-19T16:02:47.660Z,98455.21
2022-08-19T16:05:40.003Z,98461.00
2022-08-19T16:08:09.994Z,98463.59
2022-08-19T16:10:39.834Z,98467.88
2022-08-19T16:13:07.684Z,98467.55
2022-08-19T16:15:35.873Z,98460.50
2022-08-19T16:18:04.871Z,98463.84
2022-08-19T16:20:33.083Z,98462.34
2022-08-19T16:23:05.220Z,98456.96
2022-08-19T16:25:36.516Z,98455.25
2022-08-19T16:28:07.760Z,98453.04
2022-08-19T16:30:41.591Z,98451.81
2022-08-19T16:33:09.915Z,98446.39
2022-08-19T16:35:38.511Z,98445.03
2022-08-19T16:38:10.131Z,98450.91
2022-08-19T16:40:38.009Z,98451.63
2022-08-19T16:43:05.864Z,98446.98
2022-08-19T16:45:33.840Z,98449.93
2022-08-19T16:48:02.332Z,98448.27
2022-08-19T16:50:48.352Z,98459.35
2022-08-19T16:53:20.159Z,98473.30
2022-08-19T16:55:53.583Z,98476.48
2022-08-19T16:58:29.941Z,98482.10
2022-08-19T17:01:03.791Z,98485.67
2022-08-19T17:03:36.622Z,98496.40
2022-08-19T17:06:16.134Z,98497.88
2022-08-19T17:08:52.929Z,98500.56
2022-08-19T17:11:23.182Z,98506.67
2022-08-19T17:13:52.701Z,98515.02
2022-08-19T17:16:24.726Z,98527.09
2022-08-19T17:18:54.489Z,98529.50
2022-08-19T17:21:30.179Z,98526.70
2022-08-19T17:23:59.672Z,98517.80
2022-08-19T17:26:28.307Z,98514.60
2022-08-19T17:28:58.301Z,98518.41
2022-08-19T17:31:30.115Z,98525.41
2022-08-19T17:33:59.015Z,98523.15
2022-08-19T17:36:30.399Z,98525.98
2022-08-19T17:39:04.185Z,98533.59
2022-08-19T17:41:35.392Z,98537.66
2022-08-19T17:44:04.507Z,98543.69
2022-08-19T17:46:32.779Z,98546.69
2022-08-19T17:49:00.913Z,98551.31
2022-08-19T17:51:42.588Z,98550.88
2022-08-19T17:54:17.286Z,98559.05
2022-08-19T17:56:46.648Z,98561.63
2022-08-19T17:59:15.463Z,98564.75
2022-08-19T18:01:53.902Z,98565.67
2022-08-19T18:04:25.281Z,98565.29
2022-08-19T18:06:55.643Z,98563.10
2022-08-19T18:09:30.151Z,98558.39
2022-08-19T18:12:15.818Z,98545.23
2022-08-19T18:14:44.210Z,98541.31
2022-08-19T18:17:17.468Z,98538.48
2022-08-19T18:19:46.437Z,98540.80
2022-08-19T18:22:35.563Z,98539.27
2022-08-19T18:25:24.134Z,98534.63
2022-08-19T18:27:56.257Z,98543.71
2022-08-19T18:30:25.550Z,98550.00
2022-08-19T18:32:54.661Z,98556.20
2022-08-19T18:35:29.705Z,98566.73
2022-08-19T18:38:01.159Z,98580.08
2022-08-19T18:40:48.330Z,98585.33
2022-08-19T18:43:35.055Z,98590.22
2022-08-19T18:46:23.159Z,98586.30
2022-08-19T18:49:07.285Z,98588.20
2022-08-19T18:51:35.496Z,98592.52
2022-08-19T18:54:04.089Z,98598.48
2022-08-19T18:56:33.271Z,98604.48
2022-08-19T18:59:04.342Z,98603.27
2022-08-19T19:01:39.636Z,98605.86
2022-08-19T19:04:12.060Z,98607.67
2022-08-19T19:06:42.757Z,98609.26
2022-08-19T19:09:17.323Z,98617.34
2022-08-19T19:11:58.013Z,98607.68
2022-08-19T19:14:50.549Z,98600.30
2022-08-19T19:17:18.741Z,98608.89
2022-08-19T19:19:48.974Z,98616.76
2022-08-19T19:22:19.941Z,98622.00
2022-08-19T19:24:48.216Z,98626.67
2022-08-19T19:27:20.510Z,98625.55
2022-08-19T19:29:52.299Z,98626.73
2022-08-19T19:32:24.603Z,98621.70
2022-08-19T19:34:54.187Z,98622.02
2022-08-19T19:37:22.767Z,98624.84
2022-08-19T19:39:50.956Z,98623.52
2022-08-19T19:42:21.675Z,98626.85
2022-08-19T19:44:52.546Z,98635.22
2022-08-19T19:47:21.742Z,98645.92
2022-08-19T19:52:48.929Z,98670.85
2022-08-19T19:55:18.526Z,98672.50
2022-08-19T19:57:57.873Z,98668.94
2022-08-19T20:00:26.382Z,98662.54
2022-08-19T20:02:56.039Z,98664.02
2022-08-19T20:05:24.964Z,98664.41
2022-08-19T20:08:15.566Z,98671.88
2022-08-19T20:10:44.240Z,98673.18
2022-08-19T20:13:15.581Z,98673.29
2022-08-19T20:15:43.971Z,98666.29
2022-08-19T20:18:14.541Z,98670.02
2022-08-19T20:20:43.734Z,98663.42
2022-08-19T20:23:11.665Z,98666.79
2022-08-19T20:25:39.818Z,98666.63
2022-08-19T20:28:12.434Z,98670.33
2022-08-19T20:30:47.531Z,98674.04
2022-08-19T20:33:16.219Z,98687.00
2022-08-19T20:35:45.531Z,98688.68
2022-08-19T20:38:14.330Z,98684.30
2022-08-19T20:40:42.271Z,98683.57
2022-08-19T20:43:13.059Z,98674.63
2022-08-19T20:45:41.364Z,98663.05
2022-08-19T20:48:12.538Z,98649.60
2022-08-19T20:50:40.968Z,98644.84
2022-08-19T20:53:19.277Z,98646.20
2022-08-19T20:55:49.733Z,98657.20
2022-08-19T20:58:21.407Z,98659.86
2022-08-19T21:00:50.588Z,98667.02
2022-08-19T21:03:21.090Z,98671.67
2022-08-19T21:05:50.851Z,98678.68
2022-08-19T21:08:19.039Z,98681.26
2022-08-19T21:10:49.037Z,98681.66
2022-08-19T21:13:18.260Z,98682.08
2022-08-19T21:15:46.840Z,98680.23
2022-08-19T21:18:17.824Z,98677.77
2022-08-19T21:20:46.352Z,98676.91
2022-08-19T21:23:17.595Z,98671.11
2022-08-19T21:25:54.175Z,98671.63
2022-08-19T21:28:34.290Z,98666.97
2022-08-19T21:31:07.230Z,98657.61
2022-08-19T21:33:35.042Z,98656.88
2022-08-19T21:36:05.323Z,98659.10
2022-08-19T21:38:33.697Z,98664.90
2022-08-19T21:41:06.249Z,98668.27
2022-08-19T21:43:36.327Z,98668.97
2022-08-19T21:46:05.353Z,98661.44
2022-08-19T21:48:33.182Z,98652.80
2022-08-19T21:51:01.060Z,98647.03
2022-08-19T21:53:31.507Z,98645.30
2022-08-19T21:56:03.141Z,98643.59
2022-08-19T21:58:31.093Z,98641.17
2022-08-19T22:01:00.693Z,98639.56
2022-08-19T22:03:28.607Z,98639.48
2022-08-19T22:05:56.395Z,98635.46
2022-08-19T22:08:25.034Z,98630.78
2022-08-19T22:10:53.279Z,98622.34
2022-08-19T22:13:21.170Z,98622.46
2022-08-19T22:15:51.997Z,98618.41
2022-08-19T22:18:20.655Z,98616.67
2022-08-19T22:20:48.507Z,98625.07
2022-08-19T22:23:16.387Z,98629.55
2022-08-19T22:25:46.093Z,98626.52
2022-08-19T22:28:18.993Z,98626.15
2022-08-19T22:30:56.275Z,98625.95
2022-08-19T22:33:25.914Z,98629.21
2022-08-19T22:35:53.775Z,98623.97
2022-08-19T22:38:22.979Z,98623.63
2022-08-19T22:40:52.221Z,98632.80
2022-08-19T22:43:28.624Z,98633.83
2022-08-19T22:45:57.173Z,98623.64
2022-08-19T22:48:28.906Z,98611.17
2022-08-19T22:51:16.380Z,98607.02
2022-08-19T22:53:46.843Z,98613.27
2022-08-19T22:56:18.302Z,98619.13
2022-08-19T22:58:50.165Z,98619.02
2022-08-19T23:01:27.279Z,98622.81
2022-08-19T23:04:00.150Z,98624.31
2022-08-19T23:06:33.467Z,98624.89
2022-08-19T23:09:07.244Z,98625.03
2022-08-19T23:11:41.627Z,98624.29
2022-08-19T23:14:12.625Z,98628.89
2022-08-19T23:16:41.989Z,98622.34
2022-08-19T23:19:10.885Z,98617.73
2022-08-19T23:21:41.614Z,98613.03
2022-08-19T23:24:10.417Z,98606.96
2022-08-19T23:26:38.593Z,98604.91
2022-08-19T23:29:25.766Z,98604.59
2022-08-19T23:31:53.851Z,98614.16
2022-08-19T23:34:22.218Z,98620.36
2022-08-19T23:36:50.935Z,98629.05
2022-08-19T23:39:19.811Z,98636.86
2022-08-19T23:41:48.006Z,98635.88
2022-08-19T23:44:15.891Z,98636.19
2022-08-19T23:46:54.561Z,98642.47
2022-08-19T23:49:25.013Z,98639.04
2022-08-19T23:51:54.522Z,98633.69
2022-08-19T23:54:34.219Z,98632.92
2022-08-19T23:57:14.131Z,98636.23
2022-08-19T23:59:45.660Z,98640.23
